sensor_id;sensor_type;location;lat;lon;timestamp;temperature;humidity
36002;DHT22;22070;50.922;5.430;2024-02-26T00:01:56;8.00;99.90
36002;DHT22;22070;50.922;5.430;2024-02-26T00:04:21;8.00;99.90
36002;DHT22;22070;50.922;5.430;2024-02-26T00:06:47;8.00;99.90
36002;DHT22;22070;50.922;5.430;2024-02-26T00:09:15;8.00;99.90
36002;DHT22;22070;50.922;5.430;2024-02-26T00:11:41;7.90;99.90
36002;DHT22;22070;50.922;5.430;2024-02-26T00:14:07;7.90;99.90
36002;DHT22;22070;50.922;5.430;2024-02-26T00:16:32;7.80;99.90
36002;DHT22;22070;50.922;5.430;2024-02-26T00:18:58;7.80;99.90
36002;DHT22;22070;50.922;5.430;2024-02-26T00:21:24;7.80;99.90
36002;DHT22;22070;50.922;5.430;2024-02-26T00:23:50;7.80;99.90
36002;DHT22;22070;50.922;5.430;2024-02-26T00:26:18;7.80;99.90
36002;DHT22;22070;50.922;5.430;2024-02-26T00:28:44;7.80;99.90
36002;DHT22;22070;50.922;5.430;2024-02-26T00:31:09;7.80;99.90
36002;DHT22;22070;50.922;5.430;2024-02-26T00:33:35;7.70;99.90
36002;DHT22;22070;50.922;5.430;2024-02-26T00:36:01;7.80;99.90
36002;DHT22;22070;50.922;5.430;2024-02-26T00:38:27;7.70;99.90
36002;DHT22;22070;50.922;5.430;2024-02-26T00:40:53;7.60;99.90
36002;DHT22;22070;50.922;5.430;2024-02-26T00:43:19;7.60;99.90
36002;DHT22;22070;50.922;5.430;2024-02-26T00:45:44;7.60;99.90
36002;DHT22;22070;50.922;5.430;2024-02-26T00:48:12;7.50;99.90
36002;DHT22;22070;50.922;5.430;2024-02-26T00:50:39;7.50;99.90
36002;DHT22;22070;50.922;5.430;2024-02-26T00:53:04;7.50;99.90
36002;DHT22;22070;50.922;5.430;2024-02-26T00:55:30;7.50;99.90
36002;DHT22;22070;50.922;5.430;2024-02-26T00:57:56;7.40;99.90
36002;DHT22;22070;50.922;5.430;2024-02-26T01:00:21;7.40;99.90
36002;DHT22;22070;50.922;5.430;2024-02-26T01:02:47;7.40;99.90
36002;DHT22;22070;50.922;5.430;2024-02-26T01:05:14;7.40;99.90
36002;DHT22;22070;50.922;5.430;2024-02-26T01:07:40;7.40;99.90
36002;DHT22;22070;50.922;5.430;2024-02-26T01:10:06;7.40;99.90
36002;DHT22;22070;50.922;5.430;2024-02-26T01:12:33;7.40;99.90
36002;DHT22;22070;50.922;5.430;2024-02-26T01:14:59;7.30;99.90
36002;DHT22;22070;50.922;5.430;2024-02-26T01:17:25;7.40;99.90
36002;DHT22;22070;50.922;5.430;2024-02-26T01:19:50;7.40;99.90
36002;DHT22;22070;50.922;5.430;2024-02-26T01:22:16;7.40;99.90
36002;DHT22;22070;50.922;5.430;2024-02-26T01:24:42;7.30;99.90
36002;DHT22;22070;50.922;5.430;2024-02-26T01:27:07;7.30;99.90
36002;DHT22;22070;50.922;5.430;2024-02-26T01:29:34;7.40;99.90
36002;DHT22;22070;50.922;5.430;2024-02-26T01:32:00;7.40;99.90
36002;DHT22;22070;50.922;5.430;2024-02-26T01:34:25;7.40;99.90
36002;DHT22;22070;50.922;5.430;2024-02-26T01:36:51;7.40;99.90
36002;DHT22;22070;50.922;5.430;2024-02-26T01:39:16;7.40;99.90
36002;DHT22;22070;50.922;5.430;2024-02-26T01:41:42;7.40;99.90
36002;DHT22;22070;50.922;5.430;2024-02-26T01:44:08;7.40;99.90
36002;DHT22;22070;50.922;5.430;2024-02-26T01:46:35;7.40;99.90
36002;DHT22;22070;50.922;5.430;2024-02-26T01:49:02;7.40;99.90
36002;DHT22;22070;50.922;5.430;2024-02-26T01:51:29;7.50;99.90
36002;DHT22;22070;50.922;5.430;2024-02-26T01:53:56;7.40;99.90
36002;DHT22;22070;50.922;5.430;2024-02-26T01:56:23;7.40;99.90
36002;DHT22;22070;50.922;5.430;2024-02-26T01:58:53;7.30;99.90
36002;DHT22;22070;50.922;5.430;2024-02-26T02:01:22;7.20;99.90
36002;DHT22;22070;50.922;5.430;2024-02-26T02:03:50;7.20;99.90
36002;DHT22;22070;50.922;5.430;2024-02-26T02:06:16;7.30;99.90
36002;DHT22;22070;50.922;5.430;2024-02-26T02:08:42;7.20;99.90
36002;DHT22;22070;50.922;5.430;2024-02-26T02:11:09;7.20;99.90
36002;DHT22;22070;50.922;5.430;2024-02-26T02:13:37;7.30;99.90
36002;DHT22;22070;50.922;5.430;2024-02-26T02:16:03;7.20;99.90
36002;DHT22;22070;50.922;5.430;2024-02-26T02:18:29;7.20;99.90
36002;DHT22;22070;50.922;5.430;2024-02-26T02:20:55;7.20;99.90
36002;DHT22;22070;50.922;5.430;2024-02-26T02:23:22;7.10;99.90
36002;DHT22;22070;50.922;5.430;2024-02-26T02:25:48;7.10;99.90
36002;DHT22;22070;50.922;5.430;2024-02-26T02:28:13;7.10;99.90
36002;DHT22;22070;50.922;5.430;2024-02-26T02:30:39;7.10;99.90
36002;DHT22;22070;50.922;5.430;2024-02-26T02:33:06;7.10;99.90
36002;DHT22;22070;50.922;5.430;2024-02-26T02:35:31;7.10;99.90
36002;DHT22;22070;50.922;5.430;2024-02-26T02:37:57;7.10;99.90
36002;DHT22;22070;50.922;5.430;2024-02-26T02:40:23;7.10;99.90
36002;DHT22;22070;50.922;5.430;2024-02-26T02:42:49;7.00;99.90
36002;DHT22;22070;50.922;5.430;2024-02-26T02:45:14;7.00;99.90
36002;DHT22;22070;50.922;5.430;2024-02-26T02:47:40;7.10;99.90
36002;DHT22;22070;50.922;5.430;2024-02-26T02:50:06;7.00;99.90
36002;DHT22;22070;50.922;5.430;2024-02-26T02:52:31;7.00;99.90
36002;DHT22;22070;50.922;5.430;2024-02-26T02:54:58;6.90;99.90
36002;DHT22;22070;50.922;5.430;2024-02-26T02:57:24;6.90;99.90
36002;DHT22;22070;50.922;5.430;2024-02-26T02:59:49;7.00;99.90
36002;DHT22;22070;50.922;5.430;2024-02-26T03:02:15;7.00;99.90
36002;DHT22;22070;50.922;5.430;2024-02-26T03:04:41;7.10;99.90
36002;DHT22;22070;50.922;5.430;2024-02-26T03:07:06;7.10;99.90
36002;DHT22;22070;50.922;5.430;2024-02-26T03:09:32;7.00;99.90
36002;DHT22;22070;50.922;5.430;2024-02-26T03:11:57;7.00;99.90
36002;DHT22;22070;50.922;5.430;2024-02-26T03:14:23;6.80;99.90
36002;DHT22;22070;50.922;5.430;2024-02-26T03:16:52;6.80;99.90
36002;DHT22;22070;50.922;5.430;2024-02-26T03:19:18;6.80;99.90
36002;DHT22;22070;50.922;5.430;2024-02-26T03:21:44;6.80;99.90
36002;DHT22;22070;50.922;5.430;2024-02-26T03:24:10;6.80;99.90
36002;DHT22;22070;50.922;5.430;2024-02-26T03:26:36;6.80;99.90
36002;DHT22;22070;50.922;5.430;2024-02-26T03:29:02;6.80;99.90
36002;DHT22;22070;50.922;5.430;2024-02-26T03:31:28;6.70;99.90
36002;DHT22;22070;50.922;5.430;2024-02-26T03:33:54;6.80;99.90
36002;DHT22;22070;50.922;5.430;2024-02-26T03:36:19;6.80;99.90
36002;DHT22;22070;50.922;5.430;2024-02-26T03:38:47;6.80;99.90
36002;DHT22;22070;50.922;5.430;2024-02-26T03:41:13;6.80;99.90
36002;DHT22;22070;50.922;5.430;2024-02-26T03:43:38;6.80;99.90
36002;DHT22;22070;50.922;5.430;2024-02-26T03:46:07;6.70;99.90
36002;DHT22;22070;50.922;5.430;2024-02-26T03:48:34;6.70;99.90
36002;DHT22;22070;50.922;5.430;2024-02-26T03:50:59;6.70;99.90
36002;DHT22;22070;50.922;5.430;2024-02-26T03:53:25;6.80;99.90
36002;DHT22;22070;50.922;5.430;2024-02-26T03:55:51;6.80;99.90
36002;DHT22;22070;50.922;5.430;2024-02-26T03:58:18;6.90;99.90
36002;DHT22;22070;50.922;5.430;2024-02-26T04:00:43;6.80;99.90
36002;DHT22;22070;50.922;5.430;2024-02-26T04:03:09;6.80;99.90
36002;DHT22;22070;50.922;5.430;2024-02-26T04:05:35;6.80;99.90
36002;DHT22;22070;50.922;5.430;2024-02-26T04:08:01;6.80;99.90
36002;DHT22;22070;50.922;5.430;2024-02-26T04:10:29;6.80;99.90
36002;DHT22;22070;50.922;5.430;2024-02-26T04:12:54;6.80;99.90
36002;DHT22;22070;50.922;5.430;2024-02-26T04:15:20;6.80;99.90
36002;DHT22;22070;50.922;5.430;2024-02-26T04:17:45;6.80;99.90
36002;DHT22;22070;50.922;5.430;2024-02-26T04:20:15;6.80;99.90
36002;DHT22;22070;50.922;5.430;2024-02-26T04:22:41;6.70;99.90
36002;DHT22;22070;50.922;5.430;2024-02-26T04:25:07;6.70;99.90
36002;DHT22;22070;50.922;5.430;2024-02-26T04:27:33;6.60;99.90
36002;DHT22;22070;50.922;5.430;2024-02-26T04:29:59;6.70;99.90
36002;DHT22;22070;50.922;5.430;2024-02-26T04:32:25;6.70;99.90
36002;DHT22;22070;50.922;5.430;2024-02-26T04:34:50;6.70;99.90
36002;DHT22;22070;50.922;5.430;2024-02-26T04:37:16;6.70;99.90
36002;DHT22;22070;50.922;5.430;2024-02-26T04:39:42;6.70;99.90
36002;DHT22;22070;50.922;5.430;2024-02-26T04:42:07;6.70;99.90
36002;DHT22;22070;50.922;5.430;2024-02-26T04:44:33;6.70;99.90
36002;DHT22;22070;50.922;5.430;2024-02-26T04:46:58;6.70;99.90
36002;DHT22;22070;50.922;5.430;2024-02-26T04:49:24;6.70;99.90
36002;DHT22;22070;50.922;5.430;2024-02-26T04:51:50;6.70;99.90
36002;DHT22;22070;50.922;5.430;2024-02-26T04:54:15;6.60;99.90
36002;DHT22;22070;50.922;5.430;2024-02-26T04:56:41;6.60;99.90
36002;DHT22;22070;50.922;5.430;2024-02-26T04:59:07;6.70;99.90
36002;DHT22;22070;50.922;5.430;2024-02-26T05:01:32;6.70;99.90
36002;DHT22;22070;50.922;5.430;2024-02-26T05:03:58;6.70;99.90
36002;DHT22;22070;50.922;5.430;2024-02-26T05:06:24;6.70;99.90
36002;DHT22;22070;50.922;5.430;2024-02-26T05:08:49;6.70;99.90
36002;DHT22;22070;50.922;5.430;2024-02-26T05:11:15;6.70;99.90
36002;DHT22;22070;50.922;5.430;2024-02-26T05:13:42;6.70;99.90
36002;DHT22;22070;50.922;5.430;2024-02-26T05:16:08;6.70;99.90
36002;DHT22;22070;50.922;5.430;2024-02-26T05:18:34;6.70;99.90
36002;DHT22;22070;50.922;5.430;2024-02-26T05:20:59;6.70;99.90
36002;DHT22;22070;50.922;5.430;2024-02-26T05:23:26;6.80;99.90
36002;DHT22;22070;50.922;5.430;2024-02-26T05:25:52;6.70;99.90
36002;DHT22;22070;50.922;5.430;2024-02-26T05:28:17;6.80;99.90
36002;DHT22;22070;50.922;5.430;2024-02-26T05:30:45;6.80;99.90
36002;DHT22;22070;50.922;5.430;2024-02-26T05:33:11;6.70;99.90
36002;DHT22;22070;50.922;5.430;2024-02-26T05:35:38;6.60;99.90
36002;DHT22;22070;50.922;5.430;2024-02-26T05:38:04;6.60;99.90
36002;DHT22;22070;50.922;5.430;2024-02-26T05:40:29;6.60;99.90
36002;DHT22;22070;50.922;5.430;2024-02-26T05:42:55;6.70;99.90
36002;DHT22;22070;50.922;5.430;2024-02-26T05:45:21;6.80;99.90
36002;DHT22;22070;50.922;5.430;2024-02-26T05:47:47;6.80;99.90
36002;DHT22;22070;50.922;5.430;2024-02-26T05:50:13;6.80;99.90
36002;DHT22;22070;50.922;5.430;2024-02-26T05:52:40;6.70;99.90
36002;DHT22;22070;50.922;5.430;2024-02-26T05:55:07;6.70;99.90
36002;DHT22;22070;50.922;5.430;2024-02-26T05:57:33;6.80;99.90
36002;DHT22;22070;50.922;5.430;2024-02-26T05:59:59;6.70;99.90
36002;DHT22;22070;50.922;5.430;2024-02-26T06:02:31;6.80;99.90
36002;DHT22;22070;50.922;5.430;2024-02-26T06:04:57;6.70;99.90
36002;DHT22;22070;50.922;5.430;2024-02-26T06:07:23;6.70;99.90
36002;DHT22;22070;50.922;5.430;2024-02-26T06:09:49;6.70;99.90
36002;DHT22;22070;50.922;5.430;2024-02-26T06:12:14;6.70;99.90
36002;DHT22;22070;50.922;5.430;2024-02-26T06:14:42;6.60;99.90
36002;DHT22;22070;50.922;5.430;2024-02-26T06:17:07;6.60;99.90
36002;DHT22;22070;50.922;5.430;2024-02-26T06:19:33;6.60;99.90
36002;DHT22;22070;50.922;5.430;2024-02-26T06:21:58;6.60;99.90
36002;DHT22;22070;50.922;5.430;2024-02-26T06:24:24;6.60;99.90
36002;DHT22;22070;50.922;5.430;2024-02-26T06:26:50;6.60;99.90
36002;DHT22;22070;50.922;5.430;2024-02-26T06:29:16;6.60;99.90
36002;DHT22;22070;50.922;5.430;2024-02-26T06:31:41;6.60;99.90
36002;DHT22;22070;50.922;5.430;2024-02-26T06:34:07;6.60;99.90
36002;DHT22;22070;50.922;5.430;2024-02-26T06:36:32;6.60;99.90
36002;DHT22;22070;50.922;5.430;2024-02-26T06:38:58;6.50;99.90
36002;DHT22;22070;50.922;5.430;2024-02-26T06:41:24;6.60;99.90
36002;DHT22;22070;50.922;5.430;2024-02-26T06:43:55;6.60;99.90
36002;DHT22;22070;50.922;5.430;2024-02-26T06:46:22;6.70;99.90
36002;DHT22;22070;50.922;5.430;2024-02-26T06:48:48;6.60;99.90
36002;DHT22;22070;50.922;5.430;2024-02-26T06:51:14;6.60;99.90
36002;DHT22;22070;50.922;5.430;2024-02-26T06:53:40;6.10;99.90
36002;DHT22;22070;50.922;5.430;2024-02-26T06:56:06;6.60;99.90
36002;DHT22;22070;50.922;5.430;2024-02-26T06:58:31;6.60;99.90
36002;DHT22;22070;50.922;5.430;2024-02-26T07:00:57;6.50;99.90
36002;DHT22;22070;50.922;5.430;2024-02-26T07:03:23;6.50;99.90
36002;DHT22;22070;50.922;5.430;2024-02-26T07:05:49;6.50;99.90
36002;DHT22;22070;50.922;5.430;2024-02-26T07:08:15;6.40;99.90
36002;DHT22;22070;50.922;5.430;2024-02-26T07:10:41;6.40;99.90
36002;DHT22;22070;50.922;5.430;2024-02-26T07:13:07;6.40;99.90
36002;DHT22;22070;50.922;5.430;2024-02-26T07:15:33;6.40;99.90
36002;DHT22;22070;50.922;5.430;2024-02-26T07:17:58;6.40;99.90
36002;DHT22;22070;50.922;5.430;2024-02-26T07:20:29;6.30;99.90
36002;DHT22;22070;50.922;5.430;2024-02-26T07:22:55;6.40;99.90
36002;DHT22;22070;50.922;5.430;2024-02-26T07:25:21;6.40;99.90
36002;DHT22;22070;50.922;5.430;2024-02-26T07:27:46;6.40;99.90
36002;DHT22;22070;50.922;5.430;2024-02-26T07:30:12;6.50;99.90
36002;DHT22;22070;50.922;5.430;2024-02-26T07:32:38;6.50;99.90
36002;DHT22;22070;50.922;5.430;2024-02-26T07:35:04;6.50;99.90
36002;DHT22;22070;50.922;5.430;2024-02-26T07:37:30;6.50;99.90
36002;DHT22;22070;50.922;5.430;2024-02-26T07:39:57;6.40;99.90
36002;DHT22;22070;50.922;5.430;2024-02-26T07:42:23;6.50;99.90
36002;DHT22;22070;50.922;5.430;2024-02-26T07:44:49;6.50;99.90
36002;DHT22;22070;50.922;5.430;2024-02-26T07:47:14;6.40;99.90
36002;DHT22;22070;50.922;5.430;2024-02-26T07:49:40;6.40;99.90
36002;DHT22;22070;50.922;5.430;2024-02-26T07:52:06;6.40;99.90
36002;DHT22;22070;50.922;5.430;2024-02-26T07:54:32;6.40;99.90
36002;DHT22;22070;50.922;5.430;2024-02-26T07:56:57;6.50;99.90
36002;DHT22;22070;50.922;5.430;2024-02-26T07:59:23;6.50;99.90
36002;DHT22;22070;50.922;5.430;2024-02-26T08:01:53;6.50;99.90
36002;DHT22;22070;50.922;5.430;2024-02-26T08:04:18;6.60;99.90
36002;DHT22;22070;50.922;5.430;2024-02-26T08:06:44;6.60;99.90
36002;DHT22;22070;50.922;5.430;2024-02-26T08:09:10;6.60;99.90
36002;DHT22;22070;50.922;5.430;2024-02-26T08:11:35;6.60;99.90
36002;DHT22;22070;50.922;5.430;2024-02-26T08:14:01;6.50;99.90
36002;DHT22;22070;50.922;5.430;2024-02-26T08:16:27;6.50;99.90
36002;DHT22;22070;50.922;5.430;2024-02-26T08:18:53;6.50;99.90
36002;DHT22;22070;50.922;5.430;2024-02-26T08:21:18;6.50;99.90
36002;DHT22;22070;50.922;5.430;2024-02-26T08:23:44;6.60;99.90
36002;DHT22;22070;50.922;5.430;2024-02-26T08:26:10;6.60;99.90
36002;DHT22;22070;50.922;5.430;2024-02-26T08:28:39;6.50;99.90
36002;DHT22;22070;50.922;5.430;2024-02-26T08:31:05;6.50;99.90
36002;DHT22;22070;50.922;5.430;2024-02-26T08:33:31;6.50;99.90
36002;DHT22;22070;50.922;5.430;2024-02-26T08:35:56;6.60;99.90
36002;DHT22;22070;50.922;5.430;2024-02-26T08:38:22;6.60;99.90
36002;DHT22;22070;50.922;5.430;2024-02-26T08:40:48;6.70;99.90
36002;DHT22;22070;50.922;5.430;2024-02-26T08:43:14;6.70;99.90
36002;DHT22;22070;50.922;5.430;2024-02-26T08:45:40;6.50;99.90
36002;DHT22;22070;50.922;5.430;2024-02-26T08:48:06;6.70;99.90
36002;DHT22;22070;50.922;5.430;2024-02-26T08:50:32;6.60;99.90
36002;DHT22;22070;50.922;5.430;2024-02-26T08:52:58;6.60;99.90
36002;DHT22;22070;50.922;5.430;2024-02-26T08:55:26;6.70;99.90
36002;DHT22;22070;50.922;5.430;2024-02-26T08:57:52;6.60;99.90
36002;DHT22;22070;50.922;5.430;2024-02-26T09:00:18;6.70;99.90
36002;DHT22;22070;50.922;5.430;2024-02-26T09:02:46;6.70;99.90
36002;DHT22;22070;50.922;5.430;2024-02-26T09:05:12;6.70;99.90
36002;DHT22;22070;50.922;5.430;2024-02-26T09:07:38;6.70;99.90
36002;DHT22;22070;50.922;5.430;2024-02-26T09:10:05;6.70;99.90
36002;DHT22;22070;50.922;5.430;2024-02-26T09:12:30;6.60;99.90
36002;DHT22;22070;50.922;5.430;2024-02-26T09:14:56;6.60;99.90
36002;DHT22;22070;50.922;5.430;2024-02-26T09:17:23;6.70;99.90
36002;DHT22;22070;50.922;5.430;2024-02-26T09:19:48;6.70;99.90
36002;DHT22;22070;50.922;5.430;2024-02-26T09:22:14;6.80;99.90
36002;DHT22;22070;50.922;5.430;2024-02-26T09:24:40;6.80;99.90
36002;DHT22;22070;50.922;5.430;2024-02-26T09:27:05;6.90;99.90
36002;DHT22;22070;50.922;5.430;2024-02-26T09:29:31;6.80;99.90
36002;DHT22;22070;50.922;5.430;2024-02-26T09:31:57;6.70;99.90
36002;DHT22;22070;50.922;5.430;2024-02-26T09:34:24;6.70;99.90
36002;DHT22;22070;50.922;5.430;2024-02-26T09:36:49;6.80;99.90
36002;DHT22;22070;50.922;5.430;2024-02-26T09:39:15;6.80;99.90
36002;DHT22;22070;50.922;5.430;2024-02-26T09:41:45;6.80;99.90
36002;DHT22;22070;50.922;5.430;2024-02-26T09:44:12;6.80;99.90
36002;DHT22;22070;50.922;5.430;2024-02-26T09:46:39;6.80;99.90
36002;DHT22;22070;50.922;5.430;2024-02-26T09:49:06;6.90;99.90
36002;DHT22;22070;50.922;5.430;2024-02-26T09:51:34;6.80;99.90
36002;DHT22;22070;50.922;5.430;2024-02-26T09:54:00;6.80;99.90
36002;DHT22;22070;50.922;5.430;2024-02-26T09:56:28;6.80;99.90
36002;DHT22;22070;50.922;5.430;2024-02-26T09:58:56;6.80;99.90
36002;DHT22;22070;50.922;5.430;2024-02-26T10:01:22;6.80;99.90
36002;DHT22;22070;50.922;5.430;2024-02-26T10:03:54;6.90;99.90
36002;DHT22;22070;50.922;5.430;2024-02-26T10:06:21;6.90;99.90
36002;DHT22;22070;50.922;5.430;2024-02-26T10:08:47;6.90;99.90
36002;DHT22;22070;50.922;5.430;2024-02-26T10:11:15;6.90;99.90
36002;DHT22;22070;50.922;5.430;2024-02-26T10:13:41;6.80;99.90
36002;DHT22;22070;50.922;5.430;2024-02-26T10:16:07;6.90;99.90
36002;DHT22;22070;50.922;5.430;2024-02-26T10:18:53;6.90;99.90
36002;DHT22;22070;50.922;5.430;2024-02-26T10:21:22;7.00;99.90
36002;DHT22;22070;50.922;5.430;2024-02-26T10:23:48;7.00;99.90
36002;DHT22;22070;50.922;5.430;2024-02-26T10:26:15;7.00;99.90
36002;DHT22;22070;50.922;5.430;2024-02-26T10:28:45;7.00;99.90
36002;DHT22;22070;50.922;5.430;2024-02-26T10:31:11;7.10;99.90
36002;DHT22;22070;50.922;5.430;2024-02-26T10:33:39;6.90;99.90
36002;DHT22;22070;50.922;5.430;2024-02-26T10:36:06;6.90;99.90
36002;DHT22;22070;50.922;5.430;2024-02-26T10:38:34;6.90;99.90
36002;DHT22;22070;50.922;5.430;2024-02-26T10:41:01;7.10;99.90
36002;DHT22;22070;50.922;5.430;2024-02-26T10:43:27;7.10;99.90
36002;DHT22;22070;50.922;5.430;2024-02-26T10:45:55;7.10;99.90
36002;DHT22;22070;50.922;5.430;2024-02-26T10:48:21;7.20;99.90
36002;DHT22;22070;50.922;5.430;2024-02-26T10:50:47;7.20;99.90
36002;DHT22;22070;50.922;5.430;2024-02-26T10:53:17;7.20;99.90
36002;DHT22;22070;50.922;5.430;2024-02-26T10:56:04;7.20;99.90
36002;DHT22;22070;50.922;5.430;2024-02-26T10:58:31;7.10;99.90
36002;DHT22;22070;50.922;5.430;2024-02-26T11:00:57;7.10;99.90
36002;DHT22;22070;50.922;5.430;2024-02-26T11:03:25;7.20;99.90
36002;DHT22;22070;50.922;5.430;2024-02-26T11:05:51;7.30;99.90
36002;DHT22;22070;50.922;5.430;2024-02-26T11:08:19;7.20;99.90
36002;DHT22;22070;50.922;5.430;2024-02-26T11:10:52;7.30;99.90
36002;DHT22;22070;50.922;5.430;2024-02-26T11:13:19;7.30;99.90
36002;DHT22;22070;50.922;5.430;2024-02-26T11:15:46;7.40;99.90
36002;DHT22;22070;50.922;5.430;2024-02-26T11:18:15;7.40;99.90
36002;DHT22;22070;50.922;5.430;2024-02-26T11:20:43;7.40;99.90
36002;DHT22;22070;50.922;5.430;2024-02-26T11:23:09;7.50;99.90
36002;DHT22;22070;50.922;5.430;2024-02-26T11:25:38;7.50;99.90
36002;DHT22;22070;50.922;5.430;2024-02-26T11:28:10;7.50;99.90
36002;DHT22;22070;50.922;5.430;2024-02-26T11:30:39;7.50;99.90
36002;DHT22;22070;50.922;5.430;2024-02-26T11:33:09;7.40;99.90
36002;DHT22;22070;50.922;5.430;2024-02-26T11:35:37;7.40;99.90
36002;DHT22;22070;50.922;5.430;2024-02-26T11:38:03;7.40;99.90
36002;DHT22;22070;50.922;5.430;2024-02-26T11:40:31;7.40;99.90
36002;DHT22;22070;50.922;5.430;2024-02-26T11:42:58;7.40;99.90
36002;DHT22;22070;50.922;5.430;2024-02-26T11:51:00;7.40;99.90
36002;DHT22;22070;50.922;5.430;2024-02-26T11:53:31;7.40;99.90
36002;DHT22;22070;50.922;5.430;2024-02-26T11:59:11;7.30;99.90
36002;DHT22;22070;50.922;5.430;2024-02-26T12:01:48;7.30;99.90
36002;DHT22;22070;50.922;5.430;2024-02-26T12:04:23;7.30;99.90
36002;DHT22;22070;50.922;5.430;2024-02-26T12:06:56;7.30;99.90
36002;DHT22;22070;50.922;5.430;2024-02-26T12:09:41;7.30;99.90
36002;DHT22;22070;50.922;5.430;2024-02-26T12:12:17;7.30;99.90
36002;DHT22;22070;50.922;5.430;2024-02-26T12:14:58;7.30;99.90
36002;DHT22;22070;50.922;5.430;2024-02-26T12:17:24;7.30;99.90
36002;DHT22;22070;50.922;5.430;2024-02-26T12:19:51;7.50;99.90
36002;DHT22;22070;50.922;5.430;2024-02-26T12:22:18;7.70;99.90
36002;DHT22;22070;50.922;5.430;2024-02-26T12:24:44;7.60;99.90
36002;DHT22;22070;50.922;5.430;2024-02-26T12:27:10;7.70;99.90
36002;DHT22;22070;50.922;5.430;2024-02-26T12:29:36;7.90;99.90
36002;DHT22;22070;50.922;5.430;2024-02-26T12:32:03;7.80;99.90
36002;DHT22;22070;50.922;5.430;2024-02-26T12:34:29;7.80;99.90
36002;DHT22;22070;50.922;5.430;2024-02-26T12:36:57;7.90;99.90
36002;DHT22;22070;50.922;5.430;2024-02-26T12:39:23;7.90;99.90
36002;DHT22;22070;50.922;5.430;2024-02-26T12:41:49;8.10;99.90
36002;DHT22;22070;50.922;5.430;2024-02-26T12:44:17;8.00;99.90
36002;DHT22;22070;50.922;5.430;2024-02-26T12:46:43;8.00;99.90
36002;DHT22;22070;50.922;5.430;2024-02-26T12:49:15;8.20;99.90
36002;DHT22;22070;50.922;5.430;2024-02-26T12:51:41;8.20;99.90
36002;DHT22;22070;50.922;5.430;2024-02-26T12:54:07;8.10;99.90
36002;DHT22;22070;50.922;5.430;2024-02-26T12:56:34;7.90;99.90
36002;DHT22;22070;50.922;5.430;2024-02-26T12:59:00;7.80;99.90
36002;DHT22;22070;50.922;5.430;2024-02-26T13:01:26;7.80;99.90
36002;DHT22;22070;50.922;5.430;2024-02-26T13:03:53;7.70;99.90
36002;DHT22;22070;50.922;5.430;2024-02-26T13:06:19;7.70;99.90
36002;DHT22;22070;50.922;5.430;2024-02-26T13:08:46;7.70;99.90
36002;DHT22;22070;50.922;5.430;2024-02-26T13:11:12;7.70;99.90
36002;DHT22;22070;50.922;5.430;2024-02-26T13:13:38;7.70;99.90
36002;DHT22;22070;50.922;5.430;2024-02-26T13:16:05;7.70;99.90
36002;DHT22;22070;50.922;5.430;2024-02-26T13:18:33;7.80;99.90
36002;DHT22;22070;50.922;5.430;2024-02-26T13:21:13;7.70;99.90
36002;DHT22;22070;50.922;5.430;2024-02-26T13:23:43;7.80;99.90
36002;DHT22;22070;50.922;5.430;2024-02-26T13:26:11;7.70;99.90
36002;DHT22;22070;50.922;5.430;2024-02-26T13:28:38;7.60;99.90
36002;DHT22;22070;50.922;5.430;2024-02-26T13:31:04;7.60;99.90
36002;DHT22;22070;50.922;5.430;2024-02-26T13:33:33;7.60;99.90
36002;DHT22;22070;50.922;5.430;2024-02-26T13:35:59;7.60;99.90
36002;DHT22;22070;50.922;5.430;2024-02-26T13:38:26;7.50;99.90
36002;DHT22;22070;50.922;5.430;2024-02-26T13:40:52;7.50;99.90
36002;DHT22;22070;50.922;5.430;2024-02-26T13:43:18;7.60;99.90
36002;DHT22;22070;50.922;5.430;2024-02-26T13:45:45;7.50;99.90
36002;DHT22;22070;50.922;5.430;2024-02-26T13:48:11;7.50;99.90
36002;DHT22;22070;50.922;5.430;2024-02-26T13:50:41;7.50;99.90
36002;DHT22;22070;50.922;5.430;2024-02-26T13:53:08;7.50;99.90
36002;DHT22;22070;50.922;5.430;2024-02-26T13:55:34;7.70;99.90
36002;DHT22;22070;50.922;5.430;2024-02-26T13:58:00;7.60;99.90
36002;DHT22;22070;50.922;5.430;2024-02-26T14:00:29;7.50;99.90
36002;DHT22;22070;50.922;5.430;2024-02-26T14:02:58;7.50;99.90
36002;DHT22;22070;50.922;5.430;2024-02-26T14:05:23;7.40;99.90
36002;DHT22;22070;50.922;5.430;2024-02-26T14:07:49;7.50;99.90
36002;DHT22;22070;50.922;5.430;2024-02-26T14:10:15;7.60;99.90
36002;DHT22;22070;50.922;5.430;2024-02-26T14:12:41;7.50;99.90
36002;DHT22;22070;50.922;5.430;2024-02-26T14:15:08;7.50;99.90
36002;DHT22;22070;50.922;5.430;2024-02-26T14:17:35;7.40;99.90
36002;DHT22;22070;50.922;5.430;2024-02-26T14:20:00;7.40;99.90
36002;DHT22;22070;50.922;5.430;2024-02-26T14:22:26;7.40;99.90
36002;DHT22;22070;50.922;5.430;2024-02-26T14:24:53;7.30;99.90
36002;DHT22;22070;50.922;5.430;2024-02-26T14:27:18;7.40;99.90
36002;DHT22;22070;50.922;5.430;2024-02-26T14:29:46;7.30;99.90
36002;DHT22;22070;50.922;5.430;2024-02-26T14:32:12;7.30;99.90
36002;DHT22;22070;50.922;5.430;2024-02-26T14:34:38;7.30;99.90
36002;DHT22;22070;50.922;5.430;2024-02-26T14:37:04;7.30;99.90
36002;DHT22;22070;50.922;5.430;2024-02-26T14:39:32;7.30;99.90
36002;DHT22;22070;50.922;5.430;2024-02-26T14:41:58;7.40;99.90
36002;DHT22;22070;50.922;5.430;2024-02-26T14:44:24;7.40;99.90
36002;DHT22;22070;50.922;5.430;2024-02-26T14:46:50;7.40;99.90
36002;DHT22;22070;50.922;5.430;2024-02-26T14:49:16;7.40;99.90
36002;DHT22;22070;50.922;5.430;2024-02-26T14:51:42;7.40;99.90
36002;DHT22;22070;50.922;5.430;2024-02-26T14:54:12;7.50;99.90
36002;DHT22;22070;50.922;5.430;2024-02-26T14:56:38;7.50;99.90
36002;DHT22;22070;50.922;5.430;2024-02-26T14:59:04;7.50;99.90
36002;DHT22;22070;50.922;5.430;2024-02-26T15:01:30;7.50;99.90
36002;DHT22;22070;50.922;5.430;2024-02-26T15:03:56;7.50;99.90
36002;DHT22;22070;50.922;5.430;2024-02-26T15:06:22;7.50;99.90
36002;DHT22;22070;50.922;5.430;2024-02-26T15:08:48;7.50;99.90
36002;DHT22;22070;50.922;5.430;2024-02-26T15:11:14;7.40;99.90
36002;DHT22;22070;50.922;5.430;2024-02-26T15:13:40;7.50;99.90
36002;DHT22;22070;50.922;5.430;2024-02-26T15:16:05;7.40;99.90
36002;DHT22;22070;50.922;5.430;2024-02-26T15:18:31;7.50;99.90
36002;DHT22;22070;50.922;5.430;2024-02-26T15:20:57;7.60;99.90
36002;DHT22;22070;50.922;5.430;2024-02-26T15:23:23;7.50;99.90
36002;DHT22;22070;50.922;5.430;2024-02-26T15:25:48;7.50;99.90
36002;DHT22;22070;50.922;5.430;2024-02-26T15:28:14;7.50;99.90
36002;DHT22;22070;50.922;5.430;2024-02-26T15:30:40;7.50;99.90
36002;DHT22;22070;50.922;5.430;2024-02-26T15:33:06;7.60;99.90
36002;DHT22;22070;50.922;5.430;2024-02-26T15:35:32;7.60;99.90
36002;DHT22;22070;50.922;5.430;2024-02-26T15:37:57;7.60;99.90
36002;DHT22;22070;50.922;5.430;2024-02-26T15:40:24;7.50;99.90
36002;DHT22;22070;50.922;5.430;2024-02-26T15:42:50;7.40;99.90
36002;DHT22;22070;50.922;5.430;2024-02-26T15:45:16;7.50;99.90
36002;DHT22;22070;50.922;5.430;2024-02-26T15:47:42;7.50;99.90
36002;DHT22;22070;50.922;5.430;2024-02-26T15:50:08;7.50;99.90